sensor_id;sensor_type;location;lat;lon;timestamp;pressure;altitude;pressure_sealevel;temperature;humidity
45113;BME280;30873;53.908;27.576;2022-09-03T00:03:08;1023.8;;;13.3;56.1
45113;BME280;30873;53.908;27.576;2022-09-03T00:08:26;1023.7;;;13.4;55.7
45113;BME280;30873;53.908;27.576;2022-09-03T00:13:28;1023.8;;;13.6;55.2
45113;BME280;30873;53.908;27.576;2022-09-03T00:18:05;1023.8;;;13.8;54.4
45113;BME280;30873;53.908;27.576;2022-09-03T00:23:03;1023.8;;;13.9;54
45113;BME280;30873;53.908;27.576;2022-09-03T00:28:03;1023.8;;;14.1;53.6
45113;BME280;30873;53.908;27.576;2022-09-03T00:33:12;1023.8;;;14.2;53.2
45113;BME280;30873;53.908;27.576;2022-09-03T00:38:10;1023.8;;;14.1;53.2
45113;BME280;30873;53.908;27.576;2022-09-03T00:43:21;1023.8;;;14.1;53.4
45113;BME280;30873;53.908;27.576;2022-09-03T00:48:17;1023.8;;;14;53.5
45113;BME280;30873;53.908;27.576;2022-09-03T00:53:07;1023.8;;;14;53.7
45113;BME280;30873;53.908;27.576;2022-09-03T01:03:04;1023.9;;;13.9;54.5
45113;BME280;30873;53.908;27.576;2022-09-03T01:09:11;1023.9;;;13.9;54.1
45113;BME280;30873;53.908;27.576;2022-09-03T01:13:20;1023.9;;;14;54.2
45113;BME280;30873;53.908;27.576;2022-09-03T01:18:06;1023.9;;;14;53.9
45113;BME280;30873;53.908;27.576;2022-09-03T01:23:07;1023.9;;;14.2;53.4
45113;BME280;30873;53.908;27.576;2022-09-03T01:28:41;1023.9;;;14.3;53.1
45113;BME280;30873;53.908;27.576;2022-09-03T01:33:04;1023.9;;;14.4;52.6
45113;BME280;30873;53.908;27.576;2022-09-03T01:38:11;1023.9;;;14.5;52.4
45113;BME280;30873;53.908;27.576;2022-09-03T01:43:44;1023.9;;;14.4;52.4
45113;BME280;30873;53.908;27.576;2022-09-03T01:48:13;1023.9;;;14.5;52.4
45113;BME280;30873;53.908;27.576;2022-09-03T01:53:04;1023.9;;;14.4;52.4
45113;BME280;30873;53.908;27.576;2022-09-03T01:58:18;1023.9;;;14.3;52.2
45113;BME280;30873;53.908;27.576;2022-09-03T02:03:10;1023.9;;;14.3;52.3
45113;BME280;30873;53.908;27.576;2022-09-03T02:08:22;1023.9;;;14.5;51.8
45113;BME280;30873;53.908;27.576;2022-09-03T02:13:13;1023.9;;;14.6;51.8
45113;BME280;30873;53.908;27.576;2022-09-03T02:18:14;1023.9;;;14.7;51.7
45113;BME280;30873;53.908;27.576;2022-09-03T02:23:22;1023.9;;;14.6;51.9
45113;BME280;30873;53.908;27.576;2022-09-03T02:28:22;1023.9;;;14.6;51.9
45113;BME280;30873;53.908;27.576;2022-09-03T02:33:10;1023.9;;;14.4;52.3
45113;BME280;30873;53.908;27.576;2022-09-03T02:38:34;1024;;;14.5;52.3
45113;BME280;30873;53.908;27.576;2022-09-03T02:43:17;1024;;;14.5;52.3
45113;BME280;30873;53.908;27.576;2022-09-03T02:48:02;1024;;;14.4;52.8
45113;BME280;30873;53.908;27.576;2022-09-03T02:53:12;1024;;;14.3;53.1
45113;BME280;30873;53.908;27.576;2022-09-03T02:58:02;1024;;;14.2;53.3
45113;BME280;30873;53.908;27.576;2022-09-03T03:03:20;1024;;;14;53.5
45113;BME280;30873;53.908;27.576;2022-09-03T03:08:02;1024;;;14;53.5
45113;BME280;30873;53.908;27.576;2022-09-03T03:13:12;1024;;;14;53.1
45113;BME280;30873;53.908;27.576;2022-09-03T03:18:02;1024;;;14;53.2
45113;BME280;30873;53.908;27.576;2022-09-03T03:23:02;1024;;;13.8;53.6
45113;BME280;30873;53.908;27.576;2022-09-03T03:28:12;1024;;;13.6;54.3
45113;BME280;30873;53.908;27.576;2022-09-03T03:33:12;1024;;;13.5;54.5
45113;BME280;30873;53.908;27.576;2022-09-03T03:38:02;1024;;;13.4;55.1
45113;BME280;30873;53.908;27.576;2022-09-03T03:43:12;1024;;;13.4;54.9
45113;BME280;30873;53.908;27.576;2022-09-03T03:48:16;1024;;;13.4;54.8
45113;BME280;30873;53.908;27.576;2022-09-03T03:53:12;1024;;;13.6;53.9
45113;BME280;30873;53.908;27.576;2022-09-03T03:58:02;1024;;;13.8;53.5
45113;BME280;30873;53.908;27.576;2022-09-03T04:03:00;1024;;;13.9;52.2
45113;BME280;30873;53.908;27.576;2022-09-03T04:08:02;1024;;;14.1;51.2
45113;BME280;30873;53.908;27.576;2022-09-03T04:13:22;1024.1;;;14.3;50.5
45113;BME280;30873;53.908;27.576;2022-09-03T04:18:02;1024.1;;;14.4;50
45113;BME280;30873;53.908;27.576;2022-09-03T04:23:02;1024.1;;;14.5;49.3
45113;BME280;30873;53.908;27.576;2022-09-03T04:28:26;1024.1;;;14.6;49.1
45113;BME280;30873;53.908;27.576;2022-09-03T04:33:23;1024.1;;;14.7;49
45113;BME280;30873;53.908;27.576;2022-09-03T04:38:24;1024.1;;;14.9;48.6
45113;BME280;30873;53.908;27.576;2022-09-03T04:43:14;1024.1;;;15;48.3
45113;BME280;30873;53.908;27.576;2022-09-03T04:48:14;1024.1;;;15.1;48
45113;BME280;30873;53.908;27.576;2022-09-03T04:53:14;1024;;;15.3;47.9
45113;BME280;30873;53.908;27.576;2022-09-03T04:58:02;1024.1;;;15.5;46.9
45113;BME280;30873;53.908;27.576;2022-09-03T05:03:00;1024.1;;;15.6;46.1
45113;BME280;30873;53.908;27.576;2022-09-03T05:08:02;1024.1;;;15.6;45.8
45113;BME280;30873;53.908;27.576;2022-09-03T05:13:14;1024.1;;;15.8;45.4
45113;BME280;30873;53.908;27.576;2022-09-03T05:18:02;1024.1;;;15.9;45.1
45113;BME280;30873;53.908;27.576;2022-09-03T05:23:12;1024.2;;;16.1;44.5
45113;BME280;30873;53.908;27.576;2022-09-03T05:28:12;1024.2;;;16.2;44.2
45113;BME280;30873;53.908;27.576;2022-09-03T05:33:00;1024.1;;;16.3;43.8
45113;BME280;30873;53.908;27.576;2022-09-03T05:38:14;1024.1;;;16.5;43.5
45113;BME280;30873;53.908;27.576;2022-09-03T05:43:36;1024.1;;;16.8;43
45113;BME280;30873;53.908;27.576;2022-09-03T05:48:22;1024.1;;;17.1;42.5
45113;BME280;30873;53.908;27.576;2022-09-03T05:53:02;1024.1;;;17.3;42.1
45113;BME280;30873;53.908;27.576;2022-09-03T05:58:12;1024.1;;;17.4;41.8
45113;BME280;30873;53.908;27.576;2022-09-03T06:03:00;1024.1;;;17.7;41.1
45113;BME280;30873;53.908;27.576;2022-09-03T06:08:26;1024.1;;;17.9;40.8
45113;BME280;30873;53.908;27.576;2022-09-03T06:13:24;1024.1;;;18;40.8
45113;BME280;30873;53.908;27.576;2022-09-03T06:18:02;1024.1;;;18.1;40.6
45113;BME280;30873;53.908;27.576;2022-09-03T06:23:02;1024.1;;;18.2;40.5
45113;BME280;30873;53.908;27.576;2022-09-03T06:28:12;1024.2;;;18.4;40
45113;BME280;30873;53.908;27.576;2022-09-03T06:33:12;1024.2;;;18.6;39.5
45113;BME280;30873;53.908;27.576;2022-09-03T06:38:22;1024.3;;;18.8;39.3
45113;BME280;30873;53.908;27.576;2022-09-03T06:43:22;1024.3;;;19;39
45113;BME280;30873;53.908;27.576;2022-09-03T06:48:12;1024.3;;;19.1;38.8
45113;BME280;30873;53.908;27.576;2022-09-03T06:53:02;1024.2;;;19.3;38.6
45113;BME280;30873;53.908;27.576;2022-09-03T06:58:28;1024.2;;;19.4;38.8
45113;BME280;30873;53.908;27.576;2022-09-03T07:03:02;1024.3;;;19.6;38.8
45113;BME280;30873;53.908;27.576;2022-09-03T07:08:12;1024.3;;;19.6;38.5
45113;BME280;30873;53.908;27.576;2022-09-03T07:13:12;1024.3;;;19.7;38.6
45113;BME280;30873;53.908;27.576;2022-09-03T07:18:02;1024.3;;;19.9;38.2
45113;BME280;30873;53.908;27.576;2022-09-03T07:23:22;1024.3;;;20.4;37.3
45113;BME280;30873;53.908;27.576;2022-09-03T07:28:04;1024.3;;;20.9;36.1
45113;BME280;30873;53.908;27.576;2022-09-03T07:33:10;1024.3;;;21;35.5
45113;BME280;30873;53.908;27.576;2022-09-03T07:38:22;1024.3;;;21.3;34.8
45113;BME280;30873;53.908;27.576;2022-09-03T07:43:14;1024.3;;;21.6;34.3
45113;BME280;30873;53.908;27.576;2022-09-03T07:48:14;1024.3;;;21.9;33.3
45113;BME280;30873;53.908;27.576;2022-09-03T07:53:22;1024.3;;;22.1;32.3
45113;BME280;30873;53.908;27.576;2022-09-03T07:58:22;1024.3;;;22.4;31.9
45113;BME280;30873;53.908;27.576;2022-09-03T08:03:12;1024.3;;;22.8;30.8
45113;BME280;30873;53.908;27.576;2022-09-03T08:08:03;1024.4;;;22.7;30.5
45113;BME280;30873;53.908;27.576;2022-09-03T08:13:02;1024.4;;;22.5;30.6
45113;BME280;30873;53.908;27.576;2022-09-03T08:18:12;1024.3;;;22.9;30.6
45113;BME280;30873;53.908;27.576;2022-09-03T08:23:26;1024.3;;;22.8;30.8
45113;BME280;30873;53.908;27.576;2022-09-03T08:28:02;1024.4;;;22.6;31
45113;BME280;30873;53.908;27.576;2022-09-03T08:33:14;1024.3;;;22.8;30.7
45113;BME280;30873;53.908;27.576;2022-09-03T08:38:14;1024.3;;;23.1;30.4
45113;BME280;30873;53.908;27.576;2022-09-03T08:43:14;1024.2;;;23.5;30.5
45113;BME280;30873;53.908;27.576;2022-09-03T08:48:36;1024.2;;;23.7;30.3
45113;BME280;30873;53.908;27.576;2022-09-03T08:53:17;1024.2;;;23.8;29.4
45113;BME280;30873;53.908;27.576;2022-09-03T08:58:13;1024.1;;;24.2;29.2
45113;BME280;30873;53.908;27.576;2022-09-03T09:08:23;1024.1;;;24.4;28.7
45113;BME280;30873;53.908;27.576;2022-09-03T09:13:27;1024.1;;;24.9;27.7
45113;BME280;30873;53.908;27.576;2022-09-03T09:18:05;1024.1;;;24.9;27.2
45113;BME280;30873;53.908;27.576;2022-09-03T09:23:26;1024.1;;;24.6;28
45113;BME280;30873;53.908;27.576;2022-09-03T09:28:31;1024.1;;;25.5;27
45113;BME280;30873;53.908;27.576;2022-09-03T09:33:00;1024.1;;;26;25.9
45113;BME280;30873;53.908;27.576;2022-09-03T09:38:02;1024.1;;;25.9;25.2
45113;BME280;30873;53.908;27.576;2022-09-03T09:43:13;1024.1;;;25.7;25.6
45113;BME280;30873;53.908;27.576;2022-09-03T09:48:05;1024.1;;;26.7;24.8
45113;BME280;30873;53.908;27.576;2022-09-03T09:53:22;1024;;;27.7;24.2
45113;BME280;30873;53.908;27.576;2022-09-03T09:58:04;1023.9;;;29.2;22.6
45113;BME280;30873;53.908;27.576;2022-09-03T10:03:10;1024;;;29.7;21.5
45113;BME280;30873;53.908;27.576;2022-09-03T10:08:04;1024;;;28.5;22.3
45113;BME280;30873;53.908;27.576;2022-09-03T10:13:05;1024;;;28;22.8
45113;BME280;30873;53.908;27.576;2022-09-03T10:18:26;1024;;;28.9;21.9
45113;BME280;30873;53.908;27.576;2022-09-03T10:23:38;1024;;;28.6;22
45113;BME280;30873;53.908;27.576;2022-09-03T10:28:02;1024;;;28;22.5
45113;BME280;30873;53.908;27.576;2022-09-03T10:33:10;1024;;;27.8;22.9
45113;BME280;30873;53.908;27.576;2022-09-03T10:38:31;1023.9;;;27.1;23.9
45113;BME280;30873;53.908;27.576;2022-09-03T10:43:40;1024;;;26.7;24.3
45113;BME280;30873;53.908;27.576;2022-09-03T10:48:34;1024;;;26.2;24.7
45113;BME280;30873;53.908;27.576;2022-09-03T10:53:06;1023.9;;;26;25.2
45113;BME280;30873;53.908;27.576;2022-09-03T11:03:15;1023.9;;;24.9;25.9
45113;BME280;30873;53.908;27.576;2022-09-03T11:08:27;1023.9;;;25.1;25.9
45113;BME280;30873;53.908;27.576;2022-09-03T11:13:36;1024;;;24.3;27
45113;BME280;30873;53.908;27.576;2022-09-03T11:18:13;1023.9;;;24.2;26.7
45113;BME280;30873;53.908;27.576;2022-09-03T11:23:03;1023.9;;;24.6;26.3
45113;BME280;30873;53.908;27.576;2022-09-03T11:28:17;1023.8;;;24.8;26
45113;BME280;30873;53.908;27.576;2022-09-03T11:33:12;1023.8;;;24.4;26.1
45113;BME280;30873;53.908;27.576;2022-09-03T11:38:28;1023.8;;;24;26.6
45113;BME280;30873;53.908;27.576;2022-09-03T11:43:34;1023.8;;;23.8;26.7
45113;BME280;30873;53.908;27.576;2022-09-03T11:48:15;1023.7;;;23.5;26.7
45113;BME280;30873;53.908;27.576;2022-09-03T11:53:07;1023.6;;;23.3;27.1
45113;BME280;30873;53.908;27.576;2022-09-03T11:58:17;1023.6;;;23.2;27.4
45113;BME280;30873;53.908;27.576;2022-09-03T12:03:01;1023.5;;;23.3;27.1
45113;BME280;30873;53.908;27.576;2022-09-03T12:08:36;1023.5;;;23.5;25.7
45113;BME280;30873;53.908;27.576;2022-09-03T12:13:49;1023.4;;;25.2;23.7
45113;BME280;30873;53.908;27.576;2022-09-03T12:18:16;1023.3;;;28.5;20.4
45113;BME280;30873;53.908;27.576;2022-09-03T12:23:25;1023.2;;;31.3;18
45113;BME280;30873;53.908;27.576;2022-09-03T12:28:15;1023.2;;;33.9;16.2
45113;BME280;30873;53.908;27.576;2022-09-03T12:33:15;1023.2;;;34.2;15.5
45113;BME280;30873;53.908;27.576;2022-09-03T12:38:12;1023.2;;;30.2;17.7
45113;BME280;30873;53.908;27.576;2022-09-03T12:43:17;1023.3;;;27.4;19.8
45113;BME280;30873;53.908;27.576;2022-09-03T12:48:14;1023.3;;;26.2;21
45113;BME280;30873;53.908;27.576;2022-09-03T12:53:02;1023.3;;;25.5;21.9
45113;BME280;30873;53.908;27.576;2022-09-03T12:58:08;1023.3;;;24.6;23
45113;BME280;30873;53.908;27.576;2022-09-03T13:03:03;1023.3;;;24.3;23.4
45113;BME280;30873;53.908;27.576;2022-09-03T13:08:19;1023.2;;;24;24.1
45113;BME280;30873;53.908;27.576;2022-09-03T13:13:06;1023.2;;;24;24.2
45113;BME280;30873;53.908;27.576;2022-09-03T13:18:17;1023.2;;;24.2;24
45113;BME280;30873;53.908;27.576;2022-09-03T13:24:27;1023.1;;;24.4;24.1
45113;BME280;30873;53.908;27.576;2022-09-03T13:33:15;1023;;;24.2;25.2
45113;BME280;30873;53.908;27.576;2022-09-03T13:38:24;1023;;;24;25.5
45113;BME280;30873;53.908;27.576;2022-09-03T13:43:05;1023;;;23.7;26.1
45113;BME280;30873;53.908;27.576;2022-09-03T13:48:06;1023;;;23.4;27.2
45113;BME280;30873;53.908;27.576;2022-09-03T13:53:06;1022.9;;;23.3;27.7
45113;BME280;30873;53.908;27.576;2022-09-03T13:58:28;1022.9;;;23.5;27.7
45113;BME280;30873;53.908;27.576;2022-09-03T14:03:18;1022.9;;;23.9;27
45113;BME280;30873;53.908;27.576;2022-09-03T14:08:04;1022.9;;;24.9;25.7
45113;BME280;30873;53.908;27.576;2022-09-03T14:13:45;1022.8;;;25.9;24.5
45113;BME280;30873;53.908;27.576;2022-09-03T14:18:58;1022.8;;;25.6;24.6
45113;BME280;30873;53.908;27.576;2022-09-03T14:24:21;1022.8;;;25.5;24.8
45113;BME280;30873;53.908;27.576;2022-09-03T14:33:06;1022.7;;;25.7;25.2
45113;BME280;30873;53.908;27.576;2022-09-03T14:38:25;1022.6;;;26.9;23.8
45113;BME280;30873;53.908;27.576;2022-09-03T14:48:42;1022.6;;;26.5;23.8
45113;BME280;30873;53.908;27.576;2022-09-03T14:53:17;1022.6;;;28.6;22
45113;BME280;30873;53.908;27.576;2022-09-03T14:58:07;1022.6;;;32.1;18.1
45113;BME280;30873;53.908;27.576;2022-09-03T15:03:15;1022.5;;;34.3;16.3
45113;BME280;30873;53.908;27.576;2022-09-03T15:08:17;1022.5;;;35.7;15.3
45113;BME280;30873;53.908;27.576;2022-09-03T15:13:29;1022.4;;;35.8;14.8
45113;BME280;30873;53.908;27.576;2022-09-03T15:23:19;1022.5;;;35.4;14.6
45113;BME280;30873;53.908;27.576;2022-09-03T15:28:15;1022.4;;;36.7;14
45113;BME280;30873;53.908;27.576;2022-09-03T15:33:29;1022.4;;;36.6;13.8
45113;BME280;30873;53.908;27.576;2022-09-03T15:43:04;1022.4;;;31.2;17.3
45113;BME280;30873;53.908;27.576;2022-09-03T15:58:22;1022.5;;;24.8;23.2
45113;BME280;30873;53.908;27.576;2022-09-03T16:03:57;1022.5;;;23.9;24.9
45113;BME280;30873;53.908;27.576;2022-09-03T16:09:19;1022.5;;;23.1;26.2
45113;BME280;30873;53.908;27.576;2022-09-03T16:13:04;1022.5;;;22.8;26.8
45113;BME280;30873;53.908;27.576;2022-09-03T16:23:27;1022.5;;;22.1;28.2
45113;BME280;30873;53.908;27.576;2022-09-03T16:28:15;1022.5;;;21.9;28.5
45113;BME280;30873;53.908;27.576;2022-09-03T16:33:47;1022.6;;;21.8;28.6
45113;BME280;30873;53.908;27.576;2022-09-03T16:38:15;1022.6;;;21.7;28.9
45113;BME280;30873;53.908;27.576;2022-09-03T16:43:08;1022.6;;;21.5;29.2
45113;BME280;30873;53.908;27.576;2022-09-03T16:49:01;1022.7;;;21.3;30.5
45113;BME280;30873;53.908;27.576;2022-09-03T16:53:14;1022.7;;;20.9;33
45113;BME280;30873;53.908;27.576;2022-09-03T17:03:22;1022.7;;;20.1;36.6
45113;BME280;30873;53.908;27.576;2022-09-03T17:09:09;1022.8;;;20;37.7
45113;BME280;30873;53.908;27.576;2022-09-03T17:18:20;1022.9;;;19.7;39.2
45113;BME280;30873;53.908;27.576;2022-09-03T17:23:24;1023;;;19.7;39.5
45113;BME280;30873;53.908;27.576;2022-09-03T17:28:08;1023.1;;;19.5;40
45113;BME280;30873;53.908;27.576;2022-09-03T17:33:05;1023.1;;;19.5;40.2
45113;BME280;30873;53.908;27.576;2022-09-03T17:38:22;1023.1;;;19.4;40.4
45113;BME280;30873;53.908;27.576;2022-09-03T17:43:17;1023.1;;;19.3;40.6
45113;BME280;30873;53.908;27.576;2022-09-03T17:48:21;1023.2;;;19.2;41.1
45113;BME280;30873;53.908;27.576;2022-09-03T17:53:27;1023.2;;;19.2;41.4
45113;BME280;30873;53.908;27.576;2022-09-03T17:58:37;1023.2;;;19.1;41.7
45113;BME280;30873;53.908;27.576;2022-09-03T18:08:52;1023.3;;;19;42.1
45113;BME280;30873;53.908;27.576;2022-09-03T18:13:40;1023.4;;;19;42.3
45113;BME280;30873;53.908;27.576;2022-09-03T18:18:27;1023.3;;;19;42.5
45113;BME280;30873;53.908;27.576;2022-09-03T18:23:18;1023.4;;;18.9;42.8
45113;BME280;30873;53.908;27.576;2022-09-03T18:28:13;1023.4;;;18.8;43
45113;BME280;30873;53.908;27.576;2022-09-03T18:33:10;1023.3;;;18.7;43.2
45113;BME280;30873;53.908;27.576;2022-09-03T18:38:17;1023.4;;;18.6;43.4
45113;BME280;30873;53.908;27.576;2022-09-03T18:43:13;1023.4;;;18.7;43.3
45113;BME280;30873;53.908;27.576;2022-09-03T18:48:18;1023.5;;;18.7;43.1
45113;BME280;30873;53.908;27.576;2022-09-03T19:03:05;1023.6;;;18.6;43
45113;BME280;30873;53.908;27.576;2022-09-03T19:08:19;1023.5;;;18.6;42.9
45113;BME280;30873;53.908;27.576;2022-09-03T19:13:32;1023.5;;;18.5;43.3
45113;BME280;30873;53.908;27.576;2022-09-03T19:23:02;1023.6;;;18.2;44.4
45113;BME280;30873;53.908;27.576;2022-09-03T19:28:29;1023.5;;;18.1;44.9
45113;BME280;30873;53.908;27.576;2022-09-03T19:33:14;1023.6;;;18.1;45
45113;BME280;30873;53.908;27.576;2022-09-03T19:43:30;1023.6;;;17.9;45.6
45113;BME280;30873;53.908;27.576;2022-09-03T19:48:13;1023.6;;;17.9;45.6
45113;BME280;30873;53.908;27.576;2022-09-03T19:53:16;1023.7;;;17.9;45.7
45113;BME280;30873;53.908;27.576;2022-09-03T19:58:02;1023.7;;;17.9;45.8
45113;BME280;30873;53.908;27.576;2022-09-03T20:03:10;1023.7;;;18;45.8
45113;BME280;30873;53.908;27.576;2022-09-03T20:08:12;1023.7;;;18;45.9
45113;BME280;30873;53.908;27.576;2022-09-03T20:13:07;1023.7;;;18;45.9
45113;BME280;30873;53.908;27.576;2022-09-03T20:18:06;1023.7;;;18;45.9
45113;BME280;30873;53.908;27.576;2022-09-03T20:23:05;1023.8;;;18;45.8
45113;BME280;30873;53.908;27.576;2022-09-03T20:28:19;1023.8;;;18.1;45.7
45113;BME280;30873;53.908;27.576;2022-09-03T20:33:05;1023.9;;;18.1;45.8
45113;BME280;30873;53.908;27.576;2022-09-03T20:38:06;1023.9;;;18.1;45.8
45113;BME280;30873;53.908;27.576;2022-09-03T20:43:39;1023.9;;;18.1;45.8
45113;BME280;30873;53.908;27.576;2022-09-03T20:48:28;1023.8;;;18;46
45113;BME280;30873;53.908;27.576;2022-09-03T20:53:08;1023.8;;;18;46
45113;BME280;30873;53.908;27.576;2022-09-03T20:58:25;1023.9;;;17.9;46.2
45113;BME280;30873;53.908;27.576;2022-09-03T21:03:06;1023.9;;;17.9;46.3
45113;BME280;30873;53.908;27.576;2022-09-03T21:08:20;1023.9;;;17.9;46.3
45113;BME280;30873;53.908;27.576;2022-09-03T21:13:29;1023.9;;;17.9;46.3
45113;BME280;30873;53.908;27.576;2022-09-03T21:28:25;1024;;;17.9;46.3
45113;BME280;30873;53.908;27.576;2022-09-03T21:33:04;1024;;;17.8;46.3
45113;BME280;30873;53.908;27.576;2022-09-03T21:38:17;1024;;;17.7;46.5
45113;BME280;30873;53.908;27.576;2022-09-03T21:43:27;1024;;;17.6;46.7
45113;BME280;30873;53.908;27.576;2022-09-03T21:48:36;1024;;;17.6;46.7
45113;BME280;30873;53.908;27.576;2022-09-03T21:53:26;1024;;;17.6;46.6
45113;BME280;30873;53.908;27.576;2022-09-03T22:03:07;1024.1;;;17.6;46.6
45113;BME280;30873;53.908;27.576;2022-09-03T22:08:29;1024.1;;;17.5;46.7
45113;BME280;30873;53.908;27.576;2022-09-03T22:13:29;1024.1;;;17.6;46.6
45113;BME280;30873;53.908;27.576;2022-09-03T22:18:08;1024;;;17.6;46.5
45113;BME280;30873;53.908;27.576;2022-09-03T22:23:16;1024;;;17.6;46.6
45113;BME280;30873;53.908;27.576;2022-09-03T22:28:09;1024;;;17.5;46.9
45113;BME280;30873;53.908;27.576;2022-09-03T22:33:29;1023.9;;;17.4;47.1
45113;BME280;30873;53.908;27.576;2022-09-03T22:38:28;1023.9;;;17.4;47.2
45113;BME280;30873;53.908;27.576;2022-09-03T22:43:32;1023.9;;;17.3;47.5
45113;BME280;30873;53.908;27.576;2022-09-03T22:48:11;1023.9;;;17.2;47.7
45113;BME280;30873;53.908;27.576;2022-09-03T22:53:10;1023.9;;;17.2;47.9
45113;BME280;30873;53.908;27.576;2022-09-03T22:58:16;1023.9;;;17.3;47.9
45113;BME280;30873;53.908;27.576;2022-09-03T23:03:01;1023.9;;;17.3;48
45113;BME280;30873;53.908;27.576;2022-09-03T23:08:14;1024;;;17.3;48.1
45113;BME280;30873;53.908;27.576;2022-09-03T23:13:13;1024;;;17.3;48.2
45113;BME280;30873;53.908;27.576;2022-09-03T23:18:05;1024;;;17.3;48.4
45113;BME280;30873;53.908;27.576;2022-09-03T23:23:07;1024;;;17.1;48.8
45113;BME280;30873;53.908;27.576;2022-09-03T23:28:16;1024;;;17.1;48.9
45113;BME280;30873;53.908;27.576;2022-09-03T23:33:34;1024;;;17.1;49
45113;BME280;30873;53.908;27.576;2022-09-03T23:38:20;1024;;;17;49.3
45113;BME280;30873;53.908;27.576;2022-09-03T23:43:21;1024;;;16.9;49.5
45113;BME280;30873;53.908;27.576;2022-09-03T23:48:34;1023.9;;;16.9;49.6
45113;BME280;30873;53.908;27.576;2022-09-03T23:53:41;1023.9;;;16.9;49.7
45113;BME280;30873;53.908;27.576;2022-09-03T23:58:22;1023.9;;;16.9;49.8
